Time;durP1;ratioP1;P1;durP2;ratioP2;P2;SDS_P1;SDS_P2;PMS_P1;PMS_P2;Temp;Humidity;BMP_temperature;BMP_pressure;BME280_temperature;BME280_humidity;BME280_pressure;Samples;Min_cycle;Max_cycle;Signal;HPM_P1;HPM_P2
2022/10/14 00:01:11;;;;;;;32.05;12.85;;;10.90;81.00;;;;;;4100355;28;20094;-85
2022/10/14 00:03:31;;;;;;;22.63;12.90;;;11.00;81.10;;;;;;4101067;28;20033;-84
2022/10/14 00:05:50;;;;;;;24.13;13.07;;;10.90;81.00;;;;;;4094047;28;20049;-84
2022/10/14 00:08:09;;;;;;;21.73;12.50;;;10.90;80.90;;;;;;4102660;28;20468;-84
2022/10/14 00:10:28;;;;;;;27.17;14.23;;;11.00;81.00;;;;;;4095305;28;20045;-84
2022/10/14 00:12:49;;;;;;;22.40;13.07;;;11.00;81.00;;;;;;4097699;28;20042;-83
2022/10/14 00:15:08;;;;;;;27.33;13.43;;;10.90;80.90;;;;;;4091623;28;20045;-84
2022/10/14 00:17:27;;;;;;;22.70;12.77;;;10.90;81.60;;;;;;4103392;28;20447;-85
2022/10/14 00:19:46;;;;;;;29.92;14.50;;;11.00;80.90;;;;;;4104672;28;20053;-85
2022/10/14 00:22:06;;;;;;;26.90;14.55;;;10.90;80.90;;;;;;4098854;28;20121;-85
2022/10/14 00:24:25;;;;;;;25.67;13.48;;;10.90;80.90;;;;;;4094645;28;20152;-85
2022/10/14 00:26:45;;;;;;;25.13;14.20;;;10.90;80.80;;;;;;4095419;28;20038;-84
2022/10/14 00:29:10;;;;;;;27.05;13.45;;;10.80;80.80;;;;;;4103122;28;20041;-85
2022/10/14 00:31:30;;;;;;;29.98;13.35;;;10.90;80.80;;;;;;4097794;28;20069;-85
2022/10/14 00:33:49;;;;;;;28.23;14.40;;;10.80;80.70;;;;;;4096384;28;20102;-84
2022/10/14 00:36:11;;;;;;;28.23;13.48;;;10.80;80.70;;;;;;4102048;28;20734;-84
2022/10/14 00:38:31;;;;;;;27.75;14.10;;;10.90;80.70;;;;;;4103546;28;20073;-84
2022/10/14 00:40:51;;;;;;;28.80;13.15;;;10.70;80.60;;;;;;4104402;28;20462;-84
2022/10/14 00:43:13;;;;;;;24.50;13.45;;;10.80;80.70;;;;;;4100761;28;20054;-84
2022/10/14 00:45:33;;;;;;;30.50;15.23;;;10.70;80.70;;;;;;4102645;28;20101;-85
2022/10/14 00:47:53;;;;;;;35.78;14.65;;;10.70;80.60;;;;;;4094920;28;20065;-84
2022/10/14 00:50:14;;;;;;;29.77;13.60;;;10.60;80.70;;;;;;4096735;28;20843;-84
2022/10/14 00:52:34;;;;;;;34.20;13.40;;;10.60;80.70;;;;;;4111508;28;20046;-83
2022/10/14 00:55:00;;;;;;;27.35;13.18;;;10.60;80.70;;;;;;4105518;28;20117;-84
2022/10/14 00:57:22;;;;;;;31.40;12.65;;;10.70;81.00;;;;;;4117993;28;20033;-84
2022/10/14 00:59:41;;;;;;;41.63;13.05;;;10.70;80.90;;;;;;4108440;28;20034;-84
2022/10/14 01:02:00;;;;;;;27.27;12.82;;;10.60;80.90;;;;;;4107559;28;20262;-83
2022/10/14 01:04:20;;;;;;;53.90;13.23;;;10.70;81.00;;;;;;4100428;28;20078;-84
2022/10/14 01:07:14;;;;;;;30.20;12.13;;;10.60;81.00;;;;;;4100992;28;20474;-84
2022/10/14 01:10:08;;;;;;;20.73;11.32;;;10.50;81.00;;;;;;4109448;28;20041;-84
2022/10/14 01:13:25;;;;;;;23.90;10.55;;;10.60;81.20;;;;;;4105671;28;20046;-84
2022/10/14 01:16:06;;;;;;;18.83;9.88;;;10.50;81.20;;;;;;4085117;28;20085;-85
2022/10/14 01:18:25;;;;;;;17.52;10.43;;;10.50;80.70;;;;;;4083112;28;20666;-85
2022/10/14 01:21:07;;;;;;;17.92;10.23;;;10.50;80.60;;;;;;4085297;28;20051;-85
2022/10/14 01:24:00;;;;;;;24.52;10.32;;;10.40;80.60;;;;;;4090908;29;20038;-85
2022/10/14 01:26:44;;;;;;;20.20;9.70;;;10.40;80.70;;;;;;4087871;29;20038;-85
2022/10/14 01:29:19;;;;;;;18.67;9.68;;;10.40;80.50;;;;;;4078362;29;20090;-84
2022/10/14 01:31:43;;;;;;;;;;;10.40;80.50;;;;;;4089069;29;20107;-85
2022/10/14 01:34:08;;;;;;;18.13;7.80;;;10.30;81.70;;;;;;4083629;28;19925;-84
2022/10/14 01:36:35;;;;;;;17.80;9.35;;;10.30;80.20;;;;;;4090766;29;20812;-85
2022/10/14 01:38:55;;;;;;;16.77;9.35;;;10.30;80.30;;;;;;4085759;29;20073;-84
2022/10/14 01:41:26;;;;;;;24.42;9.35;;;10.30;80.40;;;;;;4086373;29;20123;-85
2022/10/14 01:43:48;;;;;;;18.27;9.23;;;10.20;80.30;;;;;;4081489;29;20148;-85
2022/10/14 01:46:09;;;;;;;22.75;9.20;;;10.20;80.30;;;;;;4083581;29;20051;-84
2022/10/14 01:48:35;;;;;;;16.95;8.55;;;10.10;80.20;;;;;;4086399;28;20524;-85
2022/10/14 01:50:57;;;;;;;17.88;9.10;;;10.10;80.10;;;;;;4109399;28;20855;-85
2022/10/14 01:53:24;;;;;;;15.75;8.30;;;10.10;80.10;;;;;;4107287;28;20042;-84
2022/10/14 01:55:46;;;;;;;16.17;9.00;;;10.10;80.10;;;;;;4103955;28;20395;-85
2022/10/14 01:58:07;;;;;;;14.75;8.38;;;10.10;80.20;;;;;;4109934;28;20045;-85
2022/10/14 02:00:26;;;;;;;13.77;8.32;;;10.10;80.20;;;;;;4111547;28;20170;-85
2022/10/14 02:02:45;;;;;;;19.13;9.02;;;10.00;80.20;;;;;;4108214;28;20042;-85
2022/10/14 02:05:13;;;;;;;15.50;9.50;;;9.90;80.20;;;;;;4106619;28;20042;-85
2022/10/14 02:07:45;;;;;;;17.17;8.95;;;9.90;80.30;;;;;;4112214;28;20565;-85
2022/10/14 02:10:04;;;;;;;17.10;8.60;;;9.90;80.30;;;;;;4109602;28;20034;-85
2022/10/14 02:12:58;;;;;;;25.77;9.32;;;9.80;80.40;;;;;;4109933;28;20049;-85
2022/10/14 02:15:29;;;;;;;26.60;8.23;;;9.80;80.50;;;;;;4106029;28;20050;-85
2022/10/14 02:18:18;;;;;;;31.30;8.30;;;9.80;80.40;;;;;;4107931;28;20104;-85
2022/10/14 02:20:53;;;;;;;16.75;7.80;;;9.80;80.60;;;;;;4106870;28;20077;-83
2022/10/14 02:23:20;;;;;;;21.85;8.63;;;9.80;80.50;;;;;;4121825;28;20082;-83
2022/10/14 02:25:42;;;;;;;24.58;8.45;;;9.80;80.50;;;;;;4106899;28;20041;-84
2022/10/14 02:28:06;;;;;;;13.25;8.27;;;9.70;80.40;;;;;;4098283;28;20119;-84
2022/10/14 02:30:26;;;;;;;;;;;9.70;80.40;;;;;;4110909;28;20034;-84
2022/10/14 02:32:48;;;;;;;15.77;6.72;;;9.70;81.00;;;;;;4104926;28;20099;-84
2022/10/14 02:35:09;;;;;;;14.38;8.05;;;9.70;80.20;;;;;;4109783;28;20129;-84
2022/10/14 02:37:29;;;;;;;12.82;7.93;;;9.70;80.30;;;;;;4109171;28;20046;-84
2022/10/14 02:39:59;;;;;;;20.35;7.65;;;9.70;80.30;;;;;;4110484;28;20975;-84
2022/10/14 02:42:18;;;;;;;23.92;7.93;;;9.70;80.40;;;;;;4105738;28;20046;-84
2022/10/14 02:44:37;;;;;;;22.33;7.68;;;9.60;80.30;;;;;;4121122;28;20201;-85
2022/10/14 02:46:56;;;;;;;18.55;6.95;;;9.60;80.30;;;;;;4107864;28;20613;-84
2022/10/14 02:49:16;;;;;;;27.50;7.75;;;9.60;80.40;;;;;;4104053;28;20096;-84
2022/10/14 02:51:35;;;;;;;53.83;8.63;;;9.60;80.40;;;;;;4108883;28;20166;-84
2022/10/14 02:53:56;;;;;;;11.63;7.15;;;9.50;80.50;;;;;;4105490;28;20042;-83
2022/10/14 02:56:16;;;;;;;23.80;7.25;;;9.50;80.40;;;;;;4103200;28;20061;-83
2022/10/14 02:58:35;;;;;;;19.70;6.80;;;9.50;80.50;;;;;;4112724;28;21401;-84
2022/10/14 03:00:54;;;;;;;14.07;6.60;;;9.50;80.60;;;;;;4106983;28;20133;-84
2022/10/14 03:03:13;;;;;;;28.23;7.00;;;9.50;80.60;;;;;;4103929;28;20093;-85
2022/10/14 03:05:33;;;;;;;26.45;6.72;;;9.50;80.80;;;;;;4107494;28;20033;-84
2022/10/14 03:07:52;;;;;;;13.50;6.85;;;9.50;80.80;;;;;;4104693;28;20037;-84
2022/10/14 03:10:11;;;;;;;12.75;6.63;;;9.40;80.70;;;;;;4107367;28;20111;-84
2022/10/14 03:12:31;;;;;;;18.98;6.88;;;9.40;80.80;;;;;;4109706;28;20546;-84
2022/10/14 03:14:50;;;;;;;9.70;6.53;;;9.30;80.70;;;;;;4108336;28;20045;-84
2022/10/14 03:17:10;;;;;;;11.10;7.47;;;9.50;80.90;;;;;;4106186;28;20046;-83
2022/10/14 03:19:29;;;;;;;14.00;6.57;;;9.40;80.80;;;;;;4103447;28;20174;-84
2022/10/14 03:21:48;;;;;;;18.77;6.85;;;9.40;80.90;;;;;;4107195;28;20049;-84
2022/10/14 03:24:08;;;;;;;16.17;7.35;;;9.40;80.90;;;;;;4102979;28;20608;-84
2022/10/14 03:26:28;;;;;;;15.18;6.78;;;9.40;80.90;;;;;;4103985;28;20073;-84
2022/10/14 03:28:47;;;;;;;11.52;7.50;;;9.50;81.00;;;;;;4097500;28;20077;-84
2022/10/14 03:31:06;;;;;;;11.73;6.53;;;9.30;80.80;;;;;;4107577;28;20078;-83
2022/10/14 03:33:26;;;;;;;13.13;6.85;;;9.30;80.80;;;;;;4104998;28;20069;-83
2022/10/14 03:35:45;;;;;;;18.73;7.10;;;9.30;80.80;;;;;;4106236;28;20046;-84
2022/10/14 03:38:05;;;;;;;24.23;7.38;;;9.30;80.80;;;;;;4107682;28;20054;-84
2022/10/14 03:40:24;;;;;;;16.95;6.90;;;9.30;80.90;;;;;;4104713;28;20046;-84
2022/10/14 03:42:43;;;;;;;18.88;6.90;;;9.40;81.00;;;;;;4104288;28;20089;-84
2022/10/14 03:45:03;;;;;;;13.30;6.60;;;9.30;80.90;;;;;;4103902;28;20502;-84
2022/10/14 03:47:22;;;;;;;11.57;6.45;;;9.30;80.90;;;;;;4108060;28;20090;-84
2022/10/14 03:49:41;;;;;;;10.40;6.88;;;9.20;80.90;;;;;;4100705;28;20094;-84
2022/10/14 03:52:00;;;;;;;10.15;6.45;;;9.20;80.80;;;;;;4109096;28;20046;-84
2022/10/14 03:54:20;;;;;;;10.23;5.95;;;9.20;80.80;;;;;;4109739;28;20034;-83
2022/10/14 03:56:39;;;;;;;10.13;5.85;;;9.20;80.80;;;;;;4111387;28;20062;-84
2022/10/14 03:58:58;;;;;;;8.75;5.45;;;9.20;80.70;;;;;;4105705;28;20105;-85
2022/10/14 04:01:18;;;;;;;9.77;5.55;;;9.20;80.70;;;;;;4104278;28;20045;-84
2022/10/14 04:03:37;;;;;;;12.05;5.35;;;9.20;80.70;;;;;;4108508;28;20041;-85
2022/10/14 04:05:57;;;;;;;10.27;5.82;;;9.10;80.70;;;;;;4105540;28;20041;-85
2022/10/14 04:08:16;;;;;;;10.82;6.60;;;9.20;80.70;;;;;;4108694;28;20037;-85
2022/10/14 04:10:35;;;;;;;9.32;5.70;;;9.10;80.80;;;;;;4109488;28;20042;-84
2022/10/14 04:12:55;;;;;;;10.50;6.07;;;9.20;80.80;;;;;;4102849;28;20050;-85
2022/10/14 04:15:14;;;;;;;12.52;5.75;;;9.10;80.80;;;;;;4106753;28;20265;-85
2022/10/14 04:17:33;;;;;;;9.43;6.10;;;9.00;80.70;;;;;;4105631;28;20062;-84
2022/10/14 04:19:52;;;;;;;8.77;5.65;;;9.10;80.80;;;;;;4109741;28;20049;-85
2022/10/14 04:22:12;;;;;;;12.35;6.15;;;9.00;80.70;;;;;;4108492;28;20050;-85
2022/10/14 04:24:31;;;;;;;10.40;5.85;;;9.00;80.70;;;;;;4105338;28;20174;-84
2022/10/14 04:26:51;;;;;;;9.25;6.13;;;8.90;80.60;;;;;;4113349;28;20077;-84
2022/10/14 04:29:10;;;;;;;10.60;5.63;;;8.90;80.60;;;;;;4103613;28;20133;-85
2022/10/14 04:31:29;;;;;;;9.02;5.45;;;8.90;80.50;;;;;;4108201;28;20034;-84
2022/10/14 04:33:49;;;;;;;7.22;4.95;;;8.90;80.50;;;;;;4105200;28;20049;-85
2022/10/14 04:36:08;;;;;;;6.90;4.68;;;8.90;80.50;;;;;;4107998;28;20050;-84
2022/10/14 04:38:28;;;;;;;9.60;5.15;;;8.80;80.40;;;;;;4104189;28;20643;-85
2022/10/14 04:40:47;;;;;;;6.55;4.00;;;8.80;80.50;;;;;;4106905;28;20092;-84
2022/10/14 04:43:06;;;;;;;5.90;4.13;;;8.80;80.50;;;;;;4110028;28;20045;-85
2022/10/14 04:45:25;;;;;;;6.25;4.35;;;8.80;80.50;;;;;;4108241;28;20069;-84
2022/10/14 04:47:44;;;;;;;7.43;4.57;;;8.80;80.60;;;;;;4106485;28;20061;-85
2022/10/14 04:50:04;;;;;;;5.82;4.15;;;8.80;80.50;;;;;;4101731;28;20066;-85
2022/10/14 04:52:23;;;;;;;7.97;4.68;;;8.70;80.40;;;;;;4111239;28;20041;-85
2022/10/14 04:54:42;;;;;;;9.32;4.43;;;8.70;80.30;;;;;;4109339;28;20041;-84
2022/10/14 04:57:02;;;;;;;7.25;4.88;;;8.70;80.20;;;;;;4107215;28;20100;-83
2022/10/14 04:59:21;;;;;;;8.88;4.50;;;8.60;80.10;;;;;;4106198;28;20065;-84
2022/10/14 05:01:40;;;;;;;11.35;4.60;;;8.70;80.00;;;;;;4108774;28;20191;-84
2022/10/14 05:03:59;;;;;;;9.40;4.50;;;8.60;80.00;;;;;;4111558;28;20577;-85
2022/10/14 05:06:18;;;;;;;7.28;4.45;;;8.50;79.80;;;;;;4108179;28;20412;-84
2022/10/14 05:08:37;;;;;;;8.05;4.82;;;8.50;79.90;;;;;;4110915;28;20040;-85
2022/10/14 05:10:56;;;;;;;7.43;4.90;;;8.50;79.90;;;;;;4106987;28;20118;-85
2022/10/14 05:13:16;;;;;;;5.95;3.80;;;8.50;79.90;;;;;;4110892;28;20041;-85
2022/10/14 05:15:35;;;;;;;6.90;4.32;;;8.40;79.80;;;;;;4106976;28;20054;-84
2022/10/14 05:17:54;;;;;;;6.32;4.10;;;8.40;79.80;;;;;;4112441;28;20037;-84
2022/10/14 05:20:13;;;;;;;9.05;4.38;;;8.40;79.80;;;;;;4112009;28;20093;-84
2022/10/14 05:22:32;;;;;;;6.53;4.60;;;8.40;79.80;;;;;;4109288;28;20050;-85
2022/10/14 05:24:51;;;;;;;8.35;5.07;;;8.40;79.80;;;;;;4106300;28;20088;-85
2022/10/14 05:27:10;;;;;;;9.35;4.50;;;8.40;79.90;;;;;;4110421;28;20038;-84
2022/10/14 05:29:29;;;;;;;8.25;4.60;;;8.30;79.80;;;;;;4121760;28;20069;-83
2022/10/14 05:31:48;;;;;;;7.95;5.05;;;8.30;79.90;;;;;;4109306;28;20057;-85
2022/10/14 05:34:08;;;;;;;6.55;4.35;;;8.30;80.00;;;;;;4113112;28;20050;-84
2022/10/14 05:36:27;;;;;;;7.50;4.97;;;8.30;80.00;;;;;;4108371;28;20508;-85
2022/10/14 05:38:46;;;;;;;6.72;4.65;;;8.30;80.00;;;;;;4111332;28;20038;-84
2022/10/14 05:41:06;;;;;;;9.55;5.35;;;8.30;80.10;;;;;;4112874;28;20041;-84
2022/10/14 05:43:25;;;;;;;7.05;5.10;;;8.30;81.00;;;;;;4111161;28;20089;-84
2022/10/14 05:45:45;;;;;;;7.40;5.13;;;8.30;80.50;;;;;;4109588;28;20038;-85
2022/10/14 05:48:04;;;;;;;7.93;5.72;;;8.40;80.70;;;;;;4110846;28;20046;-85
2022/10/14 05:50:24;;;;;;;9.43;5.93;;;8.30;80.80;;;;;;4109696;28;20058;-85
2022/10/14 05:52:43;;;;;;;14.43;7.30;;;8.30;81.00;;;;;;4107608;28;20081;-84
2022/10/14 05:55:02;;;;;;;15.38;7.20;;;8.30;81.20;;;;;;4110867;28;20089;-84
2022/10/14 05:57:21;;;;;;;15.02;8.13;;;8.40;82.10;;;;;;4107172;28;20105;-85
2022/10/14 05:59:40;;;;;;;34.13;8.10;;;8.40;81.60;;;;;;4110457;28;20041;-85
2022/10/14 06:02:00;;;;;;;15.25;7.97;;;8.40;81.70;;;;;;4103007;28;20273;-85
2022/10/14 06:04:20;;;;;;;19.40;9.40;;;8.50;81.90;;;;;;4107147;28;20037;-85
2022/10/14 06:06:39;;;;;;;28.55;9.05;;;8.60;82.20;;;;;;4109066;28;20081;-85
2022/10/14 06:08:58;;;;;;;68.68;11.80;;;8.60;82.40;;;;;;4108927;28;20571;-85
2022/10/14 06:11:18;;;;;;;31.73;9.00;;;8.60;82.20;;;;;;4108710;28;20053;-86
2022/10/14 06:13:38;;;;;;;20.85;10.27;;;8.80;82.60;;;;;;4112294;28;20077;-86
2022/10/14 06:16:04;;;;;;;23.23;10.15;;;8.80;82.70;;;;;;4110604;28;20396;-85
2022/10/14 06:18:24;;;;;;;24.23;10.23;;;8.80;82.80;;;;;;4110553;28;20609;-86
2022/10/14 06:20:43;;;;;;;29.08;10.38;;;8.90;82.90;;;;;;4112075;28;20077;-85
2022/10/14 06:23:02;;;;;;;34.45;10.40;;;8.90;83.00;;;;;;4110676;28;20037;-85
2022/10/14 06:25:21;;;;;;;19.77;9.90;;;9.00;83.10;;;;;;4105105;28;20042;-86
2022/10/14 06:27:40;;;;;;;27.77;10.88;;;9.10;83.20;;;;;;4109918;28;20034;-85
2022/10/14 06:30:00;;;;;;;22.67;10.75;;;9.10;83.30;;;;;;4105465;28;20414;-86
2022/10/14 06:32:19;;;;;;;20.63;10.73;;;9.20;83.40;;;;;;4105341;28;20057;-86
2022/10/14 06:34:38;;;;;;;26.83;11.02;;;9.20;83.50;;;;;;4110925;28;20575;-85
2022/10/14 06:36:58;;;;;;;21.15;11.05;;;9.20;84.30;;;;;;4111009;28;20570;-86
2022/10/14 06:39:17;;;;;;;20.85;10.57;;;9.30;83.60;;;;;;4106427;28;20393;-85
2022/10/14 06:41:36;;;;;;;21.40;11.45;;;9.40;83.70;;;;;;4105488;28;20049;-85
2022/10/14 06:43:55;;;;;;;19.17;10.48;;;9.40;83.80;;;;;;4106887;28;20097;-86
2022/10/14 06:46:14;;;;;;;18.70;10.32;;;9.50;83.90;;;;;;4104654;28;20122;-86
2022/10/14 06:48:34;;;;;;;20.17;10.95;;;9.50;83.90;;;;;;4101726;28;20808;-86
2022/10/14 06:50:53;;;;;;;21.45;12.52;;;9.60;83.90;;;;;;4098897;28;20038;-85
2022/10/14 06:53:12;;;;;;;19.15;10.45;;;9.70;84.10;;;;;;4106843;28;20109;-86
2022/10/14 06:55:31;;;;;;;18.25;9.63;;;9.70;84.10;;;;;;4109637;28;20074;-86
2022/10/14 06:57:50;;;;;;;15.75;8.95;;;9.70;84.10;;;;;;4110957;28;20122;-86
2022/10/14 07:00:10;;;;;;;17.63;9.68;;;9.70;84.00;;;;;;4107762;28;20085;-86
2022/10/14 07:02:29;;;;;;;16.52;8.98;;;9.80;84.10;;;;;;4111340;28;20426;-86
2022/10/14 07:04:48;;;;;;;15.43;8.10;;;9.90;84.20;;;;;;4127227;28;20075;-86
2022/10/14 07:07:07;;;;;;;14.27;7.85;;;9.90;84.10;;;;;;4110358;28;20124;-86
2022/10/14 07:09:26;;;;;;;17.13;8.70;;;10.00;84.20;;;;;;4111580;28;20057;-86
2022/10/14 07:11:46;;;;;;;16.08;8.45;;;10.00;84.20;;;;;;4109102;28;20038;-86
2022/10/14 07:14:05;;;;;;;15.75;7.65;;;10.00;84.10;;;;;;4106540;28;20089;-86
2022/10/14 07:16:24;;;;;;;14.77;7.82;;;10.10;84.20;;;;;;4110195;28;20124;-86
2022/10/14 07:18:43;;;;;;;19.73;8.98;;;10.10;84.10;;;;;;4110207;28;20041;-86
2022/10/14 07:21:06;;;;;;;20.50;9.63;;;10.20;84.10;;;;;;4109591;28;20252;-86
2022/10/14 07:23:25;;;;;;;15.50;8.60;;;10.20;84.10;;;;;;4109009;28;20118;-85
2022/10/14 07:25:44;;;;;;;18.60;9.85;;;10.20;84.10;;;;;;4109380;28;20736;-86
2022/10/14 07:28:04;;;;;;;20.50;10.00;;;10.30;84.10;;;;;;4107378;28;20026;-86
2022/10/14 07:30:23;;;;;;;19.80;9.85;;;10.30;84.10;;;;;;4102985;28;20075;-86
2022/10/14 07:32:50;;;;;;;21.17;10.05;;;10.40;84.30;;;;;;4102794;28;20045;-85
2022/10/14 07:35:09;;;;;;;25.08;11.15;;;10.50;84.40;;;;;;4108387;28;20635;-86
2022/10/14 07:37:28;;;;;;;23.98;11.35;;;10.60;84.60;;;;;;4105982;28;20042;-86
2022/10/14 07:39:48;;;;;;;28.20;11.63;;;10.50;84.50;;;;;;4102466;28;20074;-86
2022/10/14 07:42:07;;;;;;;25.52;10.85;;;10.60;84.50;;;;;;4104501;28;20046;-85
2022/10/14 07:44:26;;;;;;;27.33;11.95;;;10.60;84.60;;;;;;4106315;28;20058;-86
2022/10/14 07:46:46;;;;;;;24.52;11.63;;;10.70;84.70;;;;;;4106967;28;20042;-84
2022/10/14 07:49:15;;;;;;;26.40;11.23;;;10.80;84.80;;;;;;4107477;28;20521;-85
2022/10/14 07:51:35;;;;;;;28.83;12.63;;;10.80;84.80;;;;;;4105381;28;20053;-84
2022/10/14 07:53:56;;;;;;;29.48;13.05;;;10.90;84.80;;;;;;4106901;28;20328;-85
2022/10/14 07:56:15;;;;;;;34.63;12.75;;;11.10;84.90;;;;;;4104780;28;20102;-85
2022/10/14 07:58:34;;;;;;;30.98;12.45;;;11.00;84.90;;;;;;4109443;28;20053;-84
2022/10/14 08:00:55;;;;;;;36.33;14.20;;;11.10;85.00;;;;;;4106051;28;20268;-85
2022/10/14 08:03:16;;;;;;;36.78;13.95;;;11.10;85.20;;;;;;4102192;28;20050;-85
2022/10/14 08:05:35;;;;;;;34.75;14.20;;;11.20;85.10;;;;;;4103020;28;20097;-86
2022/10/14 08:07:54;;;;;;;31.77;13.48;;;11.20;85.00;;;;;;4103764;28;20129;-86
2022/10/14 08:10:13;;;;;;;37.67;14.38;;;11.30;85.20;;;;;;4106998;28;20062;-86
2022/10/14 08:12:32;;;;;;;35.55;13.55;;;11.30;85.20;;;;;;4100607;28;20038;-85
2022/10/14 08:14:54;;;;;;;40.33;14.23;;;11.40;85.20;;;;;;4103525;28;20190;-87
2022/10/14 08:17:14;;;;;;;41.20;15.20;;;11.40;85.10;;;;;;4102281;28;20522;-86
2022/10/14 08:19:33;;;;;;;37.45;14.43;;;11.50;85.10;;;;;;4102284;28;20135;-86
2022/10/14 08:21:52;;;;;;;35.20;14.38;;;11.60;85.00;;;;;;4096031;28;20051;-86
2022/10/14 08:24:11;;;;;;;35.05;14.50;;;11.70;84.90;;;;;;4101260;28;20290;-86
2022/10/14 08:26:34;;;;;;;44.03;15.15;;;11.70;85.30;;;;;;4107518;28;20034;-87
2022/10/14 08:28:53;;;;;;;42.00;14.73;;;11.70;84.90;;;;;;4105193;28;20058;-85
2022/10/14 08:31:12;;;;;;;41.08;15.90;;;11.80;84.90;;;;;;4103619;28;20226;-85
2022/10/14 08:33:31;;;;;;;48.45;15.95;;;11.80;84.80;;;;;;4106766;28;20456;-86
2022/10/14 08:35:51;;;;;;;37.00;13.82;;;11.80;84.80;;;;;;4109186;28;20061;-87
2022/10/14 08:38:10;;;;;;;39.88;15.05;;;11.90;84.70;;;;;;4106855;28;20085;-86
2022/10/14 08:40:43;;;;;;;38.42;14.80;;;12.00;84.80;;;;;;4107014;28;20049;-87
2022/10/14 08:43:52;;;;;;;44.13;15.23;;;12.00;84.70;;;;;;4106629;28;20118;-86
2022/10/14 08:46:20;;;;;;;43.85;15.38;;;12.10;85.00;;;;;;4106308;28;20817;-87
2022/10/14 08:48:40;;;;;;;35.63;14.23;;;12.10;84.70;;;;;;4107603;28;20098;-87
2022/10/14 08:51:09;;;;;;;39.40;16.42;;;12.20;84.80;;;;;;4105404;28;20046;-86
2022/10/14 08:53:34;;;;;;;46.63;16.95;;;12.30;84.80;;;;;;4103652;28;20521;-86
2022/10/14 08:55:59;;;;;;;43.90;15.07;;;12.30;84.60;;;;;;4103733;28;20086;-86
2022/10/14 08:58:33;;;;;;;46.00;16.55;;;12.40;84.60;;;;;;4111835;28;20394;-86
2022/10/14 09:00:53;;;;;;;;;;;12.40;84.60;;;;;;4109867;28;20041;-86
2022/10/14 09:03:35;;;;;;;42.33;14.63;;;12.50;85.00;;;;;;4103896;28;20508;-87
2022/10/14 09:06:09;;;;;;;43.60;14.77;;;12.50;84.10;;;;;;4105143;28;20041;-85
2022/10/14 09:08:39;;;;;;;39.05;14.40;;;12.60;84.00;;;;;;4106997;28;20897;-87
2022/10/14 09:10:59;;;;;;;38.17;14.18;;;12.60;84.00;;;;;;4106850;28;20037;-87
2022/10/14 09:13:37;;;;;;;42.63;15.32;;;12.70;84.10;;;;;;4104791;28;20198;-87
2022/10/14 09:16:14;;;;;;;32.88;13.25;;;12.70;84.00;;;;;;4105011;28;20117;-87
2022/10/14 09:18:54;;;;;;;30.85;12.82;;;12.80;83.80;;;;;;4106665;28;20074;-86
2022/10/14 09:21:17;;;;;;;32.85;13.48;;;12.80;83.50;;;;;;4105437;28;22274;-86
2022/10/14 09:23:36;;;;;;;28.60;13.30;;;12.90;83.50;;;;;;4105888;28;20090;-86
2022/10/14 09:26:10;;;;;;;35.95;13.55;;;12.90;83.40;;;;;;4104894;28;20034;-87
2022/10/14 09:28:37;;;;;;;31.27;12.32;;;12.90;83.50;;;;;;4102781;28;20041;-87
2022/10/14 09:30:56;;;;;;;26.48;12.23;;;13.00;83.60;;;;;;4107329;28;20235;-86
2022/10/14 09:33:19;;;;;;;30.85;13.00;;;13.00;84.40;;;;;;4105361;28;20118;-86
2022/10/14 09:35:42;;;;;;;29.13;11.57;;;13.10;83.60;;;;;;4109035;28;20095;-86
2022/10/14 09:38:01;;;;;;;24.98;11.60;;;13.10;83.30;;;;;;4106130;28;20391;-86
2022/10/14 09:40:36;;;;;;;26.15;12.10;;;13.30;83.20;;;;;;4107489;28;20845;-87
2022/10/14 09:43:07;;;;;;;25.20;11.73;;;13.20;82.90;;;;;;4103085;28;20041;-86
2022/10/14 09:45:29;;;;;;;28.15;12.70;;;13.20;82.80;;;;;;4107337;28;20061;-87
2022/10/14 09:47:57;;;;;;;34.42;13.70;;;13.30;82.90;;;;;;4105519;28;20050;-86
2022/10/14 09:50:23;;;;;;;26.77;12.52;;;13.30;83.00;;;;;;4108990;28;20037;-89
2022/10/14 09:52:42;;;;;;;28.27;12.55;;;13.30;82.80;;;;;;4111620;28;20096;-89
2022/10/14 09:55:03;;;;;;;30.75;12.60;;;13.40;82.90;;;;;;4103899;28;20073;-86
2022/10/14 09:57:24;;;;;;;28.08;11.77;;;13.50;83.10;;;;;;4105937;28;20045;-87
2022/10/14 09:59:56;;;;;;;27.65;12.70;;;13.50;83.00;;;;;;4108044;28;20097;-86
2022/10/14 10:02:25;;;;;;;27.05;11.80;;;13.60;83.00;;;;;;4106616;28;20050;-86
2022/10/14 10:04:46;;;;;;;29.50;11.70;;;13.70;82.60;;;;;;4101376;28;20562;-86
2022/10/14 10:07:22;;;;;;;25.08;10.52;;;13.80;82.30;;;;;;4101658;28;20037;-87
2022/10/14 10:09:53;;;;;;;25.58;9.93;;;13.80;81.80;;;;;;4098833;28;20041;-87
2022/10/14 10:12:31;;;;;;;23.15;9.18;;;13.80;81.10;;;;;;4100359;28;20042;-87
2022/10/14 10:14:59;;;;;;;22.08;9.05;;;13.90;80.60;;;;;;4102191;28;20033;-91
2022/10/14 10:17:21;;;;;;;28.25;9.70;;;14.00;80.50;;;;;;4103818;28;20037;-86
2022/10/14 10:19:50;;;;;;;24.05;9.32;;;14.00;80.40;;;;;;4108029;28;20050;-86
2022/10/14 10:22:18;;;;;;;23.13;9.35;;;14.00;79.90;;;;;;4106137;28;20038;-87
2022/10/14 10:24:37;;;;;;;23.60;10.00;;;14.00;79.70;;;;;;4103453;28;21225;-87
2022/10/14 10:26:56;;;;;;;22.42;8.88;;;14.10;79.80;;;;;;4104137;28;20451;-87
2022/10/14 10:29:33;;;;;;;27.25;9.20;;;14.10;79.30;;;;;;4104060;28;20042;-87
2022/10/14 10:32:19;;;;;;;21.10;8.88;;;14.10;77.90;;;;;;4107554;28;20518;-87
2022/10/14 10:35:24;;;;;;;22.38;8.18;;;14.20;76.90;;;;;;4106818;28;20069;-86
2022/10/14 10:37:47;;;;;;;;;;;14.20;77.20;;;;;;4110035;28;20053;-87
2022/10/14 10:40:21;;;;;;;23.17;8.38;;;14.30;75.80;;;;;;4109607;28;20979;-87
2022/10/14 10:42:44;;;;;;;;;;;14.20;75.70;;;;;;4107899;28;20114;-87
2022/10/14 10:45:15;;;;;;;21.35;8.43;;;14.20;74.80;;;;;;4108034;28;20789;-87
2022/10/14 10:47:44;;;;;;;20.15;8.02;;;14.20;75.70;;;;;;4106855;28;20046;-87
2022/10/14 10:50:22;;;;;;;22.67;8.30;;;14.20;75.80;;;;;;4109956;28;20038;-88
2022/10/14 10:52:44;;;;;;;17.13;7.82;;;14.20;75.70;;;;;;4105506;28;20041;-88
2022/10/14 10:55:45;;;;;;;17.27;7.60;;;14.20;75.60;;;;;;4103894;28;20173;-88
2022/10/14 10:58:19;;;;;;;22.27;8.68;;;14.20;74.90;;;;;;4108681;28;20053;-86
2022/10/14 11:00:53;;;;;;;;;;;14.30;74.90;;;;;;4108911;28;20065;-88
2022/10/14 11:03:18;;;;;;;15.35;8.00;;;14.40;74.00;;;;;;4103027;28;19925;-88
2022/10/14 11:05:37;;;;;;;18.23;8.25;;;14.40;74.80;;;;;;4109581;28;20132;-88
2022/10/14 11:13:58;;;;;;;17.92;7.22;;;14.50;74.00;;;;;;4122016;28;20029;-89
2022/10/14 11:16:49;;;;;;;21.70;7.30;;;14.50;73.70;;;;;;4123690;28;20065;-85
2022/10/14 11:19:18;;;;;;;20.70;7.68;;;14.50;73.40;;;;;;4108698;28;20038;-86
2022/10/14 11:21:59;;;;;;;22.40;7.00;;;14.60;73.20;;;;;;4106944;28;20046;-85
2022/10/14 11:24:57;;;;;;;15.32;7.15;;;14.60;72.60;;;;;;4113736;28;20218;-85
2022/10/14 11:27:41;;;;;;;16.05;7.28;;;14.60;72.30;;;;;;4099061;28;20051;-86
2022/10/14 11:30:12;;;;;;;19.85;7.43;;;14.60;72.40;;;;;;4098387;28;20033;-86
2022/10/14 11:32:53;;;;;;;17.98;7.55;;;14.60;72.90;;;;;;4098746;28;20054;-86
2022/10/14 11:35:32;;;;;;;20.05;8.30;;;14.70;72.60;;;;;;4100412;28;20727;-85
2022/10/14 11:38:00;;;;;;;20.35;8.55;;;14.70;72.70;;;;;;4097741;28;20041;-86
2022/10/14 11:40:43;;;;;;;14.52;8.23;;;14.80;72.50;;;;;;4098450;28;20049;-85
2022/10/14 11:44:01;;;;;;;17.35;8.25;;;14.80;72.50;;;;;;4102550;28;20042;-88
2022/10/14 11:46:25;;;;;;;18.45;8.20;;;14.90;70.70;;;;;;4066433;29;20098;-88
2022/10/14 11:48:54;;;;;;;17.73;8.40;;;14.90;71.80;;;;;;4064440;29;20051;-88
2022/10/14 11:51:41;;;;;;;18.45;8.25;;;14.90;71.60;;;;;;4061418;29;20143;-87
2022/10/14 11:54:13;;;;;;;17.92;9.57;;;15.00;70.60;;;;;;4065039;29;20161;-88
2022/10/14 11:56:56;;;;;;;20.45;8.73;;;15.10;71.50;;;;;;4067080;29;20050;-88
2022/10/14 11:59:31;;;;;;;17.75;8.50;;;15.20;70.10;;;;;;4079245;28;20145;-88
2022/10/14 12:01:58;;;;;;;20.70;8.90;;;15.20;70.30;;;;;;4061776;29;20123;-93
2022/10/14 12:04:29;;;;;;;22.85;9.45;;;15.30;70.20;;;;;;4068828;29;20776;-89
2022/10/14 12:06:56;;;;;;;19.20;9.40;;;15.30;69.20;;;;;;4066923;29;20087;-89
2022/10/14 12:09:30;;;;;;;22.88;10.35;;;15.30;69.20;;;;;;4075642;29;20092;-89
2022/10/14 12:11:55;;;;;;;16.70;8.32;;;15.30;69.10;;;;;;4071162;29;20043;-87
2022/10/14 12:14:22;;;;;;;17.00;7.97;;;15.40;69.30;;;;;;4066613;29;20070;-87
2022/10/14 12:16:44;;;;;;;19.58;8.20;;;15.40;68.90;;;;;;4086281;28;20093;-88
2022/10/14 12:19:09;;;;;;;14.75;7.90;;;15.50;68.60;;;;;;4100353;28;20459;-87
2022/10/14 12:21:48;;;;;;;16.73;8.40;;;15.40;68.30;;;;;;4101770;28;20094;-85
2022/10/14 12:24:19;;;;;;;16.73;8.43;;;15.40;67.60;;;;;;4101014;28;20045;-85
2022/10/14 12:26:48;;;;;;;16.90;7.68;;;15.40;67.80;;;;;;4106594;28;20034;-89
2022/10/14 12:29:13;;;;;;;14.98;8.30;;;15.50;68.10;;;;;;4101559;28;20042;-90
2022/10/14 12:31:34;;;;;;;16.23;7.90;;;15.50;68.20;;;;;;4108306;28;20062;-85